createdAt,value
2023-09-27T00:00:37.829Z,16.15
2023-09-27T00:05:35.136Z,16.09
2023-09-27T00:10:32.016Z,16.02
2023-09-27T00:15:29.351Z,15.95
2023-09-27T00:20:26.406Z,15.92
2023-09-27T00:25:23.314Z,15.86
2023-09-27T00:30:20.552Z,15.81
2023-09-27T00:35:24.485Z,15.74
2023-09-27T00:40:24.385Z,15.75
2023-09-27T00:45:21.530Z,15.68
2023-09-27T00:50:18.636Z,15.70
2023-09-27T00:55:21.387Z,15.67
2023-09-27T01:00:19.587Z,15.64
2023-09-27T01:05:18.259Z,15.64
2023-09-27T01:10:15.825Z,15.62
2023-09-27T01:15:12.857Z,15.66
2023-09-27T01:20:13.909Z,15.68
2023-09-27T01:25:16.386Z,15.77
2023-09-27T01:30:13.228Z,15.79
2023-09-27T01:35:10.139Z,15.72
2023-09-27T01:40:10.593Z,15.90
2023-09-27T01:45:07.909Z,15.79
2023-09-27T01:50:05.065Z,15.95
2023-09-27T01:55:01.952Z,15.93
2023-09-27T01:59:58.877Z,15.92
2023-09-27T02:04:56.217Z,15.95
2023-09-27T02:09:53.040Z,15.76
2023-09-27T02:14:49.793Z,15.84
2023-09-27T02:19:46.581Z,15.82
2023-09-27T02:24:43.290Z,15.78
2023-09-27T02:29:40.102Z,15.59
2023-09-27T02:34:37.259Z,15.50
2023-09-27T02:39:34.324Z,15.58
2023-09-27T02:44:31.446Z,15.54
2023-09-27T02:49:28.350Z,15.53
2023-09-27T02:54:25.500Z,15.28
2023-09-27T02:59:22.382Z,15.30
2023-09-27T03:04:19.185Z,15.38
2023-09-27T03:09:16.346Z,15.33
2023-09-27T03:14:13.140Z,15.29
2023-09-27T03:19:10.633Z,15.26
2023-09-27T03:24:07.910Z,15.23
2023-09-27T03:29:05.922Z,15.01
2023-09-27T03:34:02.664Z,15.21
2023-09-27T03:38:59.391Z,15.22
2023-09-27T03:43:56.354Z,15.04
2023-09-27T03:48:53.426Z,15.22
2023-09-27T03:53:50.527Z,15.12
2023-09-27T03:58:47.409Z,15.22
2023-09-27T04:03:44.726Z,15.21
2023-09-27T04:08:41.529Z,15.27
2023-09-27T04:13:38.344Z,15.22
2023-09-27T04:18:35.367Z,15.26
2023-09-27T04:23:32.201Z,15.28
2023-09-27T04:28:28.970Z,15.31
2023-09-27T04:33:26.093Z,15.26
2023-09-27T04:38:22.967Z,15.15
2023-09-27T04:43:19.895Z,15.29
2023-09-27T04:48:16.990Z,15.20
2023-09-27T04:53:13.832Z,15.20
2023-09-27T04:58:10.576Z,15.32
2023-09-27T05:03:09.177Z,15.35
2023-09-27T05:08:06.522Z,15.37
2023-09-27T05:13:04.992Z,15.23
2023-09-27T05:18:01.895Z,15.28
2023-09-27T05:22:58.701Z,15.37
2023-09-27T05:27:56.338Z,15.39
2023-09-27T05:32:53.381Z,15.38
2023-09-27T05:37:50.649Z,15.21
2023-09-27T05:42:47.475Z,15.35
2023-09-27T05:47:44.512Z,15.30
2023-09-27T05:52:46.305Z,15.33
2023-09-27T05:57:43.192Z,15.33
2023-09-27T06:02:40.052Z,15.18
2023-09-27T06:07:36.920Z,15.22
2023-09-27T06:12:34.022Z,15.36
2023-09-27T06:17:30.864Z,15.40
2023-09-27T06:22:28.780Z,15.42
2023-09-27T06:27:25.694Z,15.19
2023-09-27T06:32:24.275Z,15.48
2023-09-27T06:37:21.293Z,15.51
2023-09-27T06:42:18.441Z,15.69
2023-09-27T06:47:16.047Z,15.69
2023-09-27T06:52:13.826Z,15.82
2023-09-27T06:57:10.546Z,16.15
2023-09-27T07:02:07.691Z,15.97
2023-09-27T07:07:04.432Z,16.41
2023-09-27T07:12:01.665Z,16.61
2023-09-27T07:17:01.463Z,16.73
2023-09-27T07:21:58.528Z,16.73
2023-09-27T07:26:55.767Z,17.00
2023-09-27T07:31:52.608Z,17.10
2023-09-27T07:36:49.600Z,17.26
2023-09-27T07:41:46.539Z,17.27
2023-09-27T07:46:43.453Z,17.38
2023-09-27T07:51:40.309Z,17.57
2023-09-27T07:56:41.768Z,17.85
2023-09-27T08:01:38.775Z,17.79
2023-09-27T08:06:36.033Z,18.04
2023-09-27T08:11:33.318Z,18.22
2023-09-27T08:16:30.887Z,18.32
2023-09-27T08:21:27.680Z,18.53
2023-09-27T08:26:24.746Z,18.54
2023-09-27T08:31:21.612Z,18.65
2023-09-27T08:36:18.437Z,19.01
2023-09-27T08:41:16.889Z,19.20
2023-09-27T08:46:13.792Z,19.37
2023-09-27T08:51:10.725Z,19.49
2023-09-27T08:56:08.224Z,19.80
2023-09-27T09:01:09.440Z,20.30
2023-09-27T09:06:12.384Z,20.52
2023-09-27T09:11:18.248Z,20.73
2023-09-27T09:16:15.514Z,20.52
2023-09-27T09:21:20.132Z,20.72
2023-09-27T09:26:31.546Z,20.70
2023-09-27T09:31:30.113Z,20.91
2023-09-27T09:36:30.464Z,21.14
2023-09-27T09:41:45.462Z,21.42
2023-09-27T09:46:44.126Z,21.55
2023-09-27T09:51:43.113Z,21.78
2023-09-27T09:56:51.227Z,21.72
2023-09-27T10:02:01.338Z,22.15
2023-09-27T10:07:00.259Z,22.63
2023-09-27T10:11:57.955Z,22.98
2023-09-27T10:16:55.469Z,23.38
2023-09-27T10:22:06.646Z,23.71
2023-09-27T10:27:04.201Z,24.00
2023-09-27T10:32:02.583Z,23.86
2023-09-27T10:37:17.376Z,23.93
2023-09-27T10:42:44.327Z,24.05
2023-09-27T10:47:42.141Z,23.79
2023-09-27T10:52:40.184Z,23.62
2023-09-27T10:57:37.028Z,23.34
2023-09-27T11:02:34.435Z,23.10
2023-09-27T11:07:48.338Z,22.86
2023-09-27T11:12:45.251Z,23.10
2023-09-27T11:17:42.179Z,22.88
2023-09-27T11:22:39.128Z,23.09
2023-09-27T11:27:35.933Z,23.21
2023-09-27T11:32:49.808Z,23.43
2023-09-27T11:37:46.707Z,23.60
2023-09-27T11:42:50.657Z,23.82
2023-09-27T11:47:51.885Z,24.19
2023-09-27T11:52:49.162Z,24.24
2023-09-27T11:57:46.120Z,24.22
2023-09-27T12:02:55.672Z,24.17
2023-09-27T12:07:53.922Z,24.00
2023-09-27T12:12:50.866Z,23.92
2023-09-27T12:17:47.715Z,23.66
2023-09-27T12:22:44.785Z,23.44
2023-09-27T12:27:41.789Z,23.47
2023-09-27T12:32:38.695Z,23.23
2023-09-27T12:37:37.068Z,23.13
2023-09-27T12:42:34.085Z,23.19
2023-09-27T12:47:33.240Z,23.13
2023-09-27T12:52:30.204Z,23.16
2023-09-27T12:57:26.986Z,22.99
2023-09-27T13:02:23.966Z,23.08
2023-09-27T13:07:20.860Z,22.91
2023-09-27T13:12:18.096Z,22.97
2023-09-27T13:17:15.052Z,23.13
2023-09-27T13:22:12.622Z,23.23
2023-09-27T13:27:10.130Z,23.18
2023-09-27T13:32:07.184Z,23.22
2023-09-27T13:37:04.221Z,23.20
2023-09-27T13:42:01.248Z,23.19
2023-09-27T13:46:58.329Z,23.08
2023-09-27T13:51:55.247Z,23.10
2023-09-27T13:56:52.097Z,23.17
2023-09-27T14:01:49.551Z,23.09
2023-09-27T14:06:46.928Z,22.98
2023-09-27T14:11:44.213Z,22.95
2023-09-27T14:16:42.121Z,22.83
2023-09-27T14:21:40.533Z,22.67
2023-09-27T14:26:38.063Z,22.56
2023-09-27T14:31:35.303Z,22.42
2023-09-27T14:36:33.982Z,22.23
2023-09-27T14:41:30.851Z,22.05
2023-09-27T14:46:28.001Z,22.06
2023-09-27T14:51:24.941Z,21.88
2023-09-27T14:56:23.170Z,21.96
2023-09-27T15:01:20.356Z,22.16
2023-09-27T15:06:17.283Z,22.20
2023-09-27T15:16:35.616Z,22.24
2023-09-27T15:21:32.567Z,22.20
2023-09-27T15:26:35.384Z,22.05
2023-09-27T15:31:32.664Z,21.81
2023-09-27T15:36:30.418Z,21.90
2023-09-27T15:41:38.261Z,22.08
2023-09-27T15:46:41.203Z,22.12
2023-09-27T15:51:38.966Z,22.14
2023-09-27T15:56:36.000Z,22.04
2023-09-27T16:01:32.756Z,22.07
2023-09-27T16:06:31.345Z,21.99
2023-09-27T16:11:31.403Z,21.89
2023-09-27T16:16:28.673Z,22.03
2023-09-27T16:21:25.470Z,22.15
2023-09-27T16:26:22.734Z,22.12
2023-09-27T16:31:19.590Z,21.98
2023-09-27T16:36:18.235Z,22.11
2023-09-27T16:41:19.333Z,22.03
2023-09-27T16:46:16.468Z,21.88
2023-09-27T16:51:13.245Z,22.00
2023-09-27T16:56:10.016Z,22.11
2023-09-27T17:01:07.059Z,22.14
2023-09-27T17:06:04.677Z,22.04
2023-09-27T17:11:02.258Z,22.19
2023-09-27T17:15:59.141Z,22.11
2023-09-27T17:20:55.939Z,22.11
2023-09-27T17:25:52.726Z,21.98
2023-09-27T17:30:49.755Z,21.91
2023-09-27T17:35:46.818Z,22.02
2023-09-27T17:40:43.765Z,21.99
2023-09-27T17:45:40.637Z,21.97
2023-09-27T17:50:37.817Z,21.96
2023-09-27T17:55:34.785Z,21.92
2023-09-27T18:00:32.100Z,21.90
2023-09-27T18:05:29.578Z,21.87
2023-09-27T18:10:26.374Z,21.77
2023-09-27T18:15:28.091Z,21.76
2023-09-27T18:20:25.591Z,21.55
2023-09-27T18:25:22.857Z,21.55
2023-09-27T18:30:19.679Z,21.51
2023-09-27T18:35:16.870Z,21.41
2023-09-27T18:40:13.756Z,21.30
2023-09-27T18:45:11.189Z,21.39
2023-09-27T18:50:08.261Z,21.33
2023-09-27T18:55:05.517Z,21.18
2023-09-27T19:00:02.315Z,21.26
2023-09-27T19:04:59.248Z,21.13
2023-09-27T19:09:56.242Z,21.12
2023-09-27T19:14:53.316Z,20.85
2023-09-27T19:19:50.132Z,20.94
2023-09-27T19:24:47.008Z,20.83
2023-09-27T19:29:45.565Z,20.60
2023-09-27T19:34:42.400Z,20.30
2023-09-27T19:39:39.163Z,20.22
2023-09-27T19:44:36.817Z,19.72
2023-09-27T19:49:34.355Z,19.73
2023-09-27T19:54:31.187Z,19.56
2023-09-27T19:59:28.218Z,19.32
2023-09-27T20:04:25.082Z,19.06
2023-09-27T20:09:21.902Z,19.30
2023-09-27T20:14:18.737Z,19.21
2023-09-27T20:19:15.953Z,19.06
2023-09-27T20:24:12.713Z,18.92
2023-09-27T20:29:09.475Z,19.05
2023-09-27T20:34:06.596Z,18.84
2023-09-27T20:39:03.482Z,18.97
2023-09-27T20:44:00.578Z,18.77
2023-09-27T20:48:57.688Z,18.97
2023-09-27T20:53:55.520Z,18.92
2023-09-27T20:58:52.608Z,18.66
2023-09-27T21:03:49.444Z,18.77
2023-09-27T21:08:46.244Z,18.91
2023-09-27T21:13:43.292Z,18.59
2023-09-27T21:18:40.105Z,18.77
2023-09-27T21:23:36.848Z,18.92
2023-09-27T21:28:33.685Z,18.87
2023-09-27T21:33:30.441Z,18.87
2023-09-27T21:38:28.081Z,18.74
2023-09-27T21:43:28.718Z,18.85
2023-09-27T21:48:25.572Z,18.63
2023-09-27T21:53:22.724Z,18.72
2023-09-27T21:58:19.513Z,18.50
2023-09-27T22:03:18.646Z,18.47
2023-09-27T22:08:24.612Z,18.52
2023-09-27T22:13:24.328Z,18.46
2023-09-27T22:18:21.752Z,18.52
2023-09-27T22:23:33.384Z,18.57
2023-09-27T22:28:32.482Z,18.58
2023-09-27T22:33:34.463Z,18.74
2023-09-27T22:38:51.127Z,18.50
2023-09-27T22:43:53.817Z,18.62
2023-09-27T22:48:51.774Z,18.49
2023-09-27T22:53:48.640Z,18.44
2023-09-27T22:58:45.940Z,18.27
2023-09-27T23:03:42.860Z,18.33
2023-09-27T23:08:39.729Z,18.11
2023-09-27T23:13:38.037Z,18.26
2023-09-27T23:18:35.394Z,18.14
2023-09-27T23:23:38.268Z,18.12
2023-09-27T23:28:37.884Z,18.02
2023-09-27T23:33:47.375Z,17.88
2023-09-27T23:38:57.301Z,17.95
2023-09-27T23:43:54.400Z,17.89
2023-09-27T23:48:54.118Z,17.94
2023-09-27T23:53:51.921Z,17.94
2023-09-27T23:59:43.954Z,18.06
